createdAt,value
2022-12-31T00:01:44.913Z,43.34
2022-12-31T00:04:11.446Z,43.26
2022-12-31T00:06:38.040Z,43.27
2022-12-31T00:09:07.078Z,43.25
2022-12-31T00:11:34.845Z,43.42
2022-12-31T00:14:01.527Z,43.22
2022-12-31T00:16:31.295Z,43.49
2022-12-31T00:18:59.906Z,43.34
2022-12-31T00:21:28.806Z,43.46
2022-12-31T00:23:55.695Z,43.57
2022-12-31T00:26:27.275Z,43.53
2022-12-31T00:28:55.375Z,43.41
2022-12-31T00:31:24.767Z,43.46
2022-12-31T00:33:51.969Z,43.36
2022-12-31T00:36:27.248Z,43.47
2022-12-31T00:38:55.532Z,43.58
2022-12-31T00:41:23.394Z,43.54
2022-12-31T00:43:50.873Z,43.46
2022-12-31T00:46:17.902Z,43.43
2022-12-31T00:48:44.539Z,43.51
2022-12-31T00:51:13.624Z,43.65
2022-12-31T00:53:40.436Z,43.63
2022-12-31T00:56:11.527Z,43.59
2022-12-31T00:58:38.613Z,43.55
2022-12-31T01:01:14.600Z,43.69
2022-12-31T01:03:41.209Z,43.66
2022-12-31T01:06:08.191Z,43.56
2022-12-31T01:08:35.216Z,43.67
2022-12-31T01:11:21.186Z,43.67
2022-12-31T01:13:49.752Z,43.75
2022-12-31T01:16:17.668Z,43.71
2022-12-31T01:18:44.234Z,43.87
2022-12-31T01:21:12.558Z,43.77
2022-12-31T01:23:39.221Z,43.79
2022-12-31T01:26:07.909Z,43.89
2022-12-31T01:28:35.043Z,43.88
2022-12-31T01:31:10.185Z,43.80
2022-12-31T01:33:37.303Z,43.82
2022-12-31T01:36:07.035Z,43.74
2022-12-31T01:38:34.669Z,43.78
2022-12-31T01:41:01.378Z,44.02
2022-12-31T01:43:50.484Z,43.94
2022-12-31T01:46:43.701Z,43.92
2022-12-31T01:49:58.175Z,43.80
2022-12-31T01:52:32.645Z,43.96
2022-12-31T01:55:17.920Z,43.89
2022-12-31T01:57:47.133Z,43.91
2022-12-31T02:00:14.702Z,43.92
2022-12-31T02:02:41.429Z,43.80
2022-12-31T02:05:26.160Z,43.99
2022-12-31T02:07:54.477Z,43.84
2022-12-31T02:10:21.213Z,43.91
2022-12-31T02:12:48.199Z,43.99
2022-12-31T02:15:15.061Z,43.83
2022-12-31T02:18:00.225Z,43.93
2022-12-31T02:20:58.125Z,43.88
2022-12-31T02:23:58.906Z,43.90
2022-12-31T02:26:28.033Z,43.99
2022-12-31T02:29:12.148Z,44.02
2022-12-31T02:31:56.302Z,43.96
2022-12-31T02:34:25.554Z,43.94
2022-12-31T02:36:55.119Z,43.86
2022-12-31T02:39:22.249Z,43.94
2022-12-31T02:41:50.112Z,43.97
2022-12-31T02:44:29.939Z,44.02
2022-12-31T02:47:05.257Z,43.96
2022-12-31T02:49:40.831Z,43.95
2022-12-31T02:52:13.321Z,43.89
2022-12-31T02:55:01.667Z,43.87
2022-12-31T02:57:39.150Z,43.91
2022-12-31T03:00:31.958Z,43.94
2022-12-31T03:03:00.377Z,44.03
2022-12-31T03:05:36.711Z,44.00
2022-12-31T03:08:03.476Z,43.95
2022-12-31T03:10:30.131Z,44.00
2022-12-31T03:12:56.708Z,44.01
2022-12-31T03:15:26.609Z,44.06
2022-12-31T03:17:58.082Z,43.86
2022-12-31T03:20:50.662Z,43.94
2022-12-31T03:23:25.925Z,43.90
2022-12-31T03:25:53.463Z,44.04
2022-12-31T03:28:23.012Z,43.92
2022-12-31T03:30:52.951Z,44.24
2022-12-31T03:33:20.500Z,43.94
2022-12-31T03:35:47.990Z,44.03
2022-12-31T03:38:15.472Z,44.04
2022-12-31T03:40:44.620Z,43.83
2022-12-31T03:43:11.584Z,43.94
2022-12-31T03:45:38.588Z,44.01
2022-12-31T03:48:07.109Z,43.95
2022-12-31T03:50:33.739Z,43.91
2022-12-31T03:53:00.557Z,44.02
2022-12-31T03:55:27.200Z,43.98
2022-12-31T03:57:53.697Z,43.80
2022-12-31T04:00:21.931Z,43.99
2022-12-31T04:02:49.536Z,44.10
2022-12-31T04:05:17.306Z,44.13
2022-12-31T04:07:44.158Z,44.10
2022-12-31T04:10:13.806Z,44.06
2022-12-31T04:12:40.697Z,44.06
2022-12-31T04:15:08.294Z,44.11
2022-12-31T04:17:34.783Z,44.08
2022-12-31T04:20:01.281Z,44.05
2022-12-31T04:22:27.840Z,44.20
2022-12-31T04:24:54.393Z,44.01
2022-12-31T04:27:20.942Z,44.15
2022-12-31T04:29:47.492Z,43.98
2022-12-31T04:32:13.969Z,44.07
2022-12-31T04:34:40.531Z,44.03
2022-12-31T04:37:07.056Z,44.01
2022-12-31T04:39:33.685Z,44.08
2022-12-31T04:42:00.242Z,44.24
2022-12-31T04:44:26.768Z,44.07
2022-12-31T04:46:53.404Z,44.08
2022-12-31T04:49:19.994Z,44.13
2022-12-31T04:51:46.627Z,44.17
2022-12-31T04:54:13.213Z,44.08
2022-12-31T04:56:39.813Z,44.19
2022-12-31T04:59:07.360Z,44.35
2022-12-31T05:01:34.030Z,44.57
2022-12-31T05:04:00.594Z,44.27
2022-12-31T05:06:27.256Z,44.22
2022-12-31T05:08:54.235Z,44.32
2022-12-31T05:11:20.709Z,44.27
2022-12-31T05:13:47.330Z,44.27
2022-12-31T05:16:13.940Z,44.24
2022-12-31T05:18:40.539Z,44.29
2022-12-31T05:21:07.147Z,44.43
2022-12-31T05:23:34.433Z,44.46
2022-12-31T05:26:01.777Z,44.41
2022-12-31T05:28:28.401Z,44.40
2022-12-31T05:30:55.388Z,44.40
2022-12-31T05:33:23.051Z,44.46
2022-12-31T05:35:49.644Z,44.37
2022-12-31T05:38:16.202Z,44.41
2022-12-31T05:40:42.666Z,44.35
2022-12-31T05:43:09.245Z,44.40
2022-12-31T05:45:35.787Z,44.38
2022-12-31T05:48:02.380Z,44.44
2022-12-31T05:50:28.955Z,44.28
2022-12-31T05:52:55.901Z,44.24
2022-12-31T05:55:22.580Z,44.40
2022-12-31T05:57:49.105Z,44.22
2022-12-31T06:00:16.263Z,44.36
2022-12-31T06:02:43.168Z,44.30
2022-12-31T06:05:10.363Z,44.40
2022-12-31T06:07:36.855Z,44.26
2022-12-31T06:10:03.806Z,44.39
2022-12-31T06:12:30.308Z,44.27
2022-12-31T06:14:56.813Z,44.29
2022-12-31T06:17:23.358Z,44.40
2022-12-31T06:19:49.839Z,44.51
2022-12-31T06:22:16.513Z,44.44
2022-12-31T06:24:43.071Z,44.51
2022-12-31T06:27:09.858Z,44.20
2022-12-31T06:29:36.411Z,44.32
2022-12-31T06:32:03.162Z,44.54
2022-12-31T06:34:29.604Z,44.47
2022-12-31T06:36:56.098Z,44.46
2022-12-31T06:39:22.661Z,44.32
2022-12-31T06:41:49.163Z,44.47
2022-12-31T06:44:15.726Z,44.33
2022-12-31T06:46:42.356Z,44.55
2022-12-31T06:49:08.937Z,44.31
2022-12-31T06:51:35.502Z,44.54
2022-12-31T06:54:02.105Z,44.38
2022-12-31T06:56:34.455Z,44.43
2022-12-31T06:59:03.070Z,44.22
2022-12-31T07:01:44.682Z,44.44
2022-12-31T07:04:54.644Z,44.32
2022-12-31T07:07:42.773Z,44.44
2022-12-31T07:10:43.500Z,44.35
2022-12-31T07:13:25.981Z,44.50
2022-12-31T07:16:20.554Z,44.49
2022-12-31T07:19:09.533Z,44.36
2022-12-31T07:21:38.303Z,44.35
2022-12-31T07:24:09.989Z,44.48
2022-12-31T07:26:56.923Z,44.48
2022-12-31T07:29:26.576Z,44.51
2022-12-31T07:32:08.933Z,44.55
2022-12-31T07:35:03.598Z,44.40
2022-12-31T07:37:48.676Z,44.38
2022-12-31T07:41:09.317Z,44.43
2022-12-31T07:43:57.082Z,44.38
2022-12-31T07:46:46.976Z,44.45
2022-12-31T07:49:14.125Z,44.41
2022-12-31T07:51:41.325Z,44.40
2022-12-31T07:54:13.667Z,44.49
2022-12-31T07:56:42.054Z,44.32
2022-12-31T07:59:31.203Z,44.30
2022-12-31T08:02:03.621Z,44.49
2022-12-31T08:04:54.408Z,44.61
2022-12-31T08:07:30.127Z,44.58
2022-12-31T08:09:59.739Z,44.66
2022-12-31T08:12:31.268Z,44.64
2022-12-31T08:14:58.442Z,44.58
2022-12-31T08:17:25.142Z,44.58
2022-12-31T08:19:51.878Z,44.62
2022-12-31T08:22:55.413Z,44.56
2022-12-31T08:25:33.041Z,44.54
2022-12-31T08:28:18.013Z,44.48
2022-12-31T08:31:01.852Z,44.56
2022-12-31T08:34:05.368Z,44.52
2022-12-31T08:36:44.645Z,44.48
2022-12-31T08:39:17.261Z,44.52
2022-12-31T08:41:49.656Z,44.61
2022-12-31T08:44:47.268Z,44.60
2022-12-31T08:47:42.640Z,44.68
2022-12-31T08:50:19.049Z,44.74
2022-12-31T08:52:46.387Z,44.88
2022-12-31T08:55:17.221Z,44.65
2022-12-31T08:57:46.730Z,44.74
2022-12-31T09:00:16.718Z,44.94
2022-12-31T09:03:15.543Z,44.69
2022-12-31T09:05:54.339Z,44.63
2022-12-31T09:08:29.345Z,44.77
2022-12-31T09:11:01.637Z,44.63
2022-12-31T09:13:52.516Z,44.79
2022-12-31T09:16:28.958Z,44.70
2022-12-31T09:18:55.495Z,44.74
2022-12-31T09:21:22.254Z,44.81
2022-12-31T09:23:49.364Z,44.84
2022-12-31T09:26:42.305Z,44.74
2022-12-31T09:29:42.397Z,44.72
2022-12-31T09:32:24.429Z,44.81
2022-12-31T09:35:15.180Z,44.83
2022-12-31T09:38:00.381Z,44.83
2022-12-31T09:40:32.772Z,44.87
2022-12-31T09:43:14.776Z,44.68
2022-12-31T09:46:06.131Z,44.82
2022-12-31T09:48:46.457Z,44.80
2022-12-31T09:51:25.793Z,44.89
2022-12-31T09:54:28.962Z,44.78
2022-12-31T09:57:29.506Z,44.94
2022-12-31T10:00:10.957Z,44.91
2022-12-31T10:03:16.112Z,44.65
2022-12-31T10:05:49.350Z,44.83
2022-12-31T10:08:18.755Z,44.79
2022-12-31T10:11:12.551Z,44.79
2022-12-31T10:14:03.361Z,44.94
2022-12-31T10:16:51.973Z,44.96
2022-12-31T10:19:32.610Z,45.02
2022-12-31T10:22:24.586Z,45.07
2022-12-31T10:25:39.217Z,45.09
2022-12-31T10:28:11.979Z,45.00
2022-12-31T10:30:43.960Z,45.30
2022-12-31T10:33:27.323Z,44.99
2022-12-31T10:36:07.646Z,45.22
2022-12-31T10:38:55.493Z,45.13
2022-12-31T10:41:28.079Z,45.03
2022-12-31T10:44:04.088Z,45.28
2022-12-31T10:47:18.191Z,45.41
2022-12-31T10:49:53.398Z,45.42
2022-12-31T10:52:28.867Z,45.56
2022-12-31T10:55:25.955Z,45.38
2022-12-31T10:58:05.025Z,45.50
2022-12-31T11:00:44.773Z,45.25
2022-12-31T11:03:36.318Z,45.35
2022-12-31T11:06:20.865Z,45.27
2022-12-31T11:09:06.492Z,45.25
2022-12-31T11:11:57.375Z,45.25
2022-12-31T11:14:57.799Z,45.30
2022-12-31T11:17:49.171Z,45.31
2022-12-31T11:20:39.218Z,45.28
2022-12-31T11:23:17.310Z,45.29
2022-12-31T11:25:58.661Z,45.32
2022-12-31T11:28:34.441Z,45.41
2022-12-31T11:31:22.477Z,45.58
2022-12-31T11:34:10.645Z,45.57
2022-12-31T11:37:16.202Z,45.50
2022-12-31T11:39:57.636Z,45.34
2022-12-31T11:42:48.896Z,45.37
2022-12-31T11:45:43.230Z,45.33
2022-12-31T11:48:37.342Z,45.46
2022-12-31T11:51:16.688Z,45.46
2022-12-31T11:54:01.298Z,45.62
2022-12-31T11:56:35.594Z,45.53
2022-12-31T11:59:07.714Z,45.57
2022-12-31T12:01:55.944Z,45.36
2022-12-31T12:04:22.511Z,45.59
2022-12-31T12:06:49.018Z,45.54
2022-12-31T12:09:26.723Z,45.62
2022-12-31T12:12:02.122Z,45.60
2022-12-31T12:14:40.962Z,45.76
2022-12-31T12:17:22.210Z,45.61
2022-12-31T12:19:55.161Z,45.68
2022-12-31T12:22:24.787Z,45.79
2022-12-31T12:25:06.606Z,45.72
2022-12-31T12:27:36.953Z,45.63
2022-12-31T12:30:19.929Z,45.78
2022-12-31T12:33:01.871Z,45.73
2022-12-31T12:35:35.930Z,45.65
2022-12-31T12:38:18.202Z,45.66
2022-12-31T12:40:57.489Z,45.74
2022-12-31T12:43:27.198Z,45.66
2022-12-31T12:45:58.801Z,45.72
2022-12-31T12:48:35.812Z,45.68
2022-12-31T12:51:18.055Z,45.74
2022-12-31T12:53:50.552Z,45.74
2022-12-31T12:56:26.095Z,45.65
2022-12-31T12:59:07.719Z,45.71
2022-12-31T13:01:46.670Z,45.66
2022-12-31T13:04:34.591Z,45.77
2022-12-31T13:07:13.919Z,45.87
2022-12-31T13:10:05.233Z,46.02
2022-12-31T13:13:13.675Z,46.06
2022-12-31T13:15:56.844Z,45.91
2022-12-31T13:18:39.269Z,45.77
2022-12-31T13:21:27.462Z,45.80
2022-12-31T13:24:03.315Z,45.79
2022-12-31T13:26:42.716Z,45.82
2022-12-31T13:29:18.203Z,45.69
2022-12-31T13:31:45.829Z,45.72
2022-12-31T13:34:25.897Z,45.66
2022-12-31T13:36:54.314Z,45.79
2022-12-31T13:39:25.434Z,45.78
2022-12-31T13:42:14.524Z,45.86
2022-12-31T13:44:51.748Z,45.96
2022-12-31T13:47:29.804Z,46.18
2022-12-31T13:50:01.000Z,46.15
2022-12-31T13:52:32.213Z,46.20
2022-12-31T13:55:29.848Z,46.14
2022-12-31T13:58:31.955Z,45.90
2022-12-31T14:01:22.940Z,45.91
2022-12-31T14:03:49.454Z,45.84
2022-12-31T14:06:17.638Z,45.80
2022-12-31T14:08:45.331Z,45.88
2022-12-31T14:11:21.598Z,45.79
2022-12-31T14:14:12.460Z,45.87
2022-12-31T14:17:11.480Z,45.83
2022-12-31T14:19:56.584Z,45.76
2022-12-31T14:23:09.647Z,45.78
2022-12-31T14:26:01.994Z,45.75
2022-12-31T14:28:47.095Z,45.84
2022-12-31T14:31:27.964Z,45.87
2022-12-31T14:34:03.923Z,45.86
2022-12-31T14:37:09.068Z,45.65
2022-12-31T14:39:59.544Z,45.51
2022-12-31T14:42:57.623Z,45.40
2022-12-31T14:45:45.999Z,45.48
2022-12-31T14:48:37.589Z,45.41
2022-12-31T14:51:05.502Z,45.40
2022-12-31T14:53:32.248Z,45.40
2022-12-31T14:56:02.959Z,45.24
2022-12-31T14:58:31.395Z,45.44
2022-12-31T15:01:18.971Z,45.67
2022-12-31T15:03:46.512Z,45.37
2022-12-31T15:06:39.795Z,45.36
2022-12-31T15:09:31.170Z,45.42
2022-12-31T15:12:07.606Z,45.44
2022-12-31T15:14:49.673Z,45.46
2022-12-31T15:17:48.198Z,45.25
2022-12-31T15:20:52.297Z,45.36
2022-12-31T15:23:51.644Z,45.13
2022-12-31T15:26:27.912Z,45.29
2022-12-31T15:29:01.232Z,45.17
2022-12-31T15:31:28.617Z,45.28
2022-12-31T15:33:58.132Z,45.20
2022-12-31T15:36:30.626Z,45.05
2022-12-31T15:39:25.734Z,45.17
2022-12-31T15:42:36.381Z,45.16
2022-12-31T15:44:50.963Z,45.17
2022-12-31T15:47:27.680Z,45.21
2022-12-31T15:49:55.487Z,45.17
2022-12-31T15:52:30.213Z,45.21
2022-12-31T15:54:57.827Z,45.21
2022-12-31T15:57:33.459Z,45.08
2022-12-31T16:00:05.761Z,45.03
2022-12-31T16:02:32.593Z,44.90
2022-12-31T16:04:59.229Z,44.99
2022-12-31T16:07:28.064Z,45.00
2022-12-31T16:09:58.103Z,44.87
2022-12-31T16:12:32.948Z,44.95
2022-12-31T16:15:01.564Z,44.89
2022-12-31T16:17:36.344Z,44.93
2022-12-31T16:20:23.289Z,44.96
2022-12-31T16:22:57.491Z,44.95
2022-12-31T16:25:33.125Z,44.96
2022-12-31T16:28:02.624Z,44.94
2022-12-31T16:30:32.116Z,44.88
2022-12-31T16:33:04.588Z,45.07
2022-12-31T16:35:34.156Z,44.92
2022-12-31T16:38:12.628Z,44.86
2022-12-31T16:40:41.316Z,44.78
2022-12-31T16:43:30.773Z,44.79
2022-12-31T16:46:06.294Z,44.85
2022-12-31T16:48:33.209Z,44.60
2022-12-31T16:50:59.803Z,44.79
2022-12-31T16:53:27.852Z,44.65
2022-12-31T16:56:04.291Z,44.60
2022-12-31T16:58:34.818Z,44.80
2022-12-31T17:01:11.394Z,44.67
2022-12-31T17:03:42.611Z,44.70
2022-12-31T17:06:09.630Z,44.75
2022-12-31T17:08:41.948Z,44.67
2022-12-31T17:11:23.995Z,44.75
2022-12-31T17:13:56.515Z,44.66
2022-12-31T17:16:23.627Z,44.70
2022-12-31T17:18:50.912Z,44.77
2022-12-31T17:21:17.802Z,44.56
2022-12-31T17:23:53.325Z,44.59
2022-12-31T17:26:27.137Z,44.51
2022-12-31T17:28:56.786Z,44.46
2022-12-31T17:31:36.359Z,44.51
2022-12-31T17:34:14.995Z,44.41
2022-12-31T17:36:57.010Z,44.56
2022-12-31T17:39:25.160Z,44.45
2022-12-31T17:41:55.104Z,44.39
2022-12-31T17:44:25.851Z,44.44
2022-12-31T17:46:53.279Z,44.38
2022-12-31T17:49:27.236Z,44.40
2022-12-31T17:51:53.870Z,44.26
2022-12-31T17:54:20.765Z,44.37
2022-12-31T17:56:47.523Z,44.37
2022-12-31T17:59:19.336Z,44.29
2022-12-31T18:01:45.968Z,44.29
2022-12-31T18:04:14.442Z,44.20
2022-12-31T18:06:41.489Z,44.11
2022-12-31T18:09:08.516Z,44.18
2022-12-31T18:11:37.773Z,44.25
2022-12-31T18:14:04.472Z,44.05
2022-12-31T18:16:31.071Z,44.16
2022-12-31T18:19:00.334Z,43.94
2022-12-31T18:21:33.090Z,44.11
2022-12-31T18:26:27.603Z,44.06
2022-12-31T18:28:54.375Z,44.05
2022-12-31T18:31:27.423Z,44.10
2022-12-31T18:33:56.989Z,43.99
2022-12-31T18:36:24.928Z,44.06
2022-12-31T18:38:51.733Z,43.93
2022-12-31T18:41:24.390Z,43.96
2022-12-31T18:43:51.485Z,43.95
2022-12-31T18:46:23.676Z,43.76
2022-12-31T18:48:50.245Z,43.90
2022-12-31T18:51:26.480Z,43.91
2022-12-31T18:53:57.753Z,43.91
2022-12-31T18:56:25.209Z,43.89
2022-12-31T18:58:52.108Z,43.87
2022-12-31T19:01:29.904Z,43.80
2022-12-31T19:03:58.661Z,43.67
2022-12-31T19:06:25.756Z,43.73
2022-12-31T19:08:52.468Z,43.68
2022-12-31T19:11:19.808Z,43.82
2022-12-31T19:13:46.697Z,43.60
2022-12-31T19:16:14.135Z,43.65
2022-12-31T19:18:41.695Z,43.69
2022-12-31T19:21:16.043Z,43.51
2022-12-31T19:23:42.741Z,43.48
2022-12-31T19:26:14.379Z,43.54
2022-12-31T19:28:40.928Z,43.52
2022-12-31T19:31:07.465Z,43.49
2022-12-31T19:33:34.030Z,43.38
2022-12-31T19:36:00.540Z,43.41
2022-12-31T19:38:29.067Z,43.46
2022-12-31T19:40:55.861Z,43.30
2022-12-31T19:43:23.794Z,43.30
2022-12-31T19:45:51.153Z,43.37
2022-12-31T19:48:28.755Z,43.28
2022-12-31T19:50:59.153Z,43.36
2022-12-31T19:53:27.189Z,43.22
2022-12-31T19:55:54.413Z,43.41
2022-12-31T19:58:26.105Z,43.22
2022-12-31T20:00:59.626Z,43.18
2022-12-31T20:03:28.605Z,43.20
2022-12-31T20:06:07.546Z,43.13
2022-12-31T20:08:35.655Z,43.08
2022-12-31T20:11:12.564Z,43.08
2022-12-31T20:13:40.348Z,43.00
2022-12-31T20:16:08.885Z,42.96
2022-12-31T20:18:39.269Z,43.06
2022-12-31T20:21:10.012Z,42.96
2022-12-31T20:23:36.379Z,43.05
2022-12-31T20:26:03.150Z,42.98
2022-12-31T20:28:29.949Z,42.85
2022-12-31T20:30:56.819Z,42.90
2022-12-31T20:33:23.715Z,42.89
2022-12-31T20:35:50.967Z,42.89
2022-12-31T20:38:17.540Z,42.74
2022-12-31T20:40:46.954Z,42.76
2022-12-31T20:43:14.140Z,42.75
2022-12-31T20:45:41.391Z,42.65
2022-12-31T20:48:08.227Z,42.71
2022-12-31T20:50:35.063Z,42.80
2022-12-31T20:53:02.001Z,42.78
2022-12-31T20:55:30.732Z,42.74
2022-12-31T20:57:57.285Z,42.81
2022-12-31T21:00:23.883Z,42.71
2022-12-31T21:03:00.265Z,42.76
2022-12-31T21:05:33.852Z,42.81
2022-12-31T21:08:00.513Z,42.65
2022-12-31T21:10:27.001Z,42.75
2022-12-31T21:12:53.536Z,42.68
2022-12-31T21:15:21.629Z,42.70
2022-12-31T21:17:48.296Z,42.77
2022-12-31T21:20:14.814Z,42.60
2022-12-31T21:22:41.339Z,42.65
2022-12-31T21:25:08.157Z,42.66
2022-12-31T21:27:35.784Z,42.87
2022-12-31T21:30:18.181Z,42.68
2022-12-31T21:32:45.781Z,42.70
2022-12-31T21:35:42.230Z,42.71
2022-12-31T21:38:06.961Z,42.59
2022-12-31T21:40:34.039Z,42.69
2022-12-31T21:43:00.616Z,42.62
2022-12-31T21:45:27.287Z,42.58
2022-12-31T21:48:12.381Z,42.61
2022-12-31T21:50:38.969Z,42.66
2022-12-31T21:53:05.432Z,42.66
2022-12-31T21:55:50.635Z,42.53
2022-12-31T21:58:26.368Z,42.39
2022-12-31T22:01:12.935Z,42.62
2022-12-31T22:03:39.817Z,42.57
2022-12-31T22:06:12.487Z,42.54
2022-12-31T22:08:45.158Z,42.43
2022-12-31T22:11:13.327Z,42.50
2022-12-31T22:13:40.676Z,42.50
2022-12-31T22:16:08.180Z,42.35
2022-12-31T22:18:38.733Z,42.46
2022-12-31T22:21:17.393Z,42.40
2022-12-31T22:23:45.792Z,42.34
2022-12-31T22:26:14.043Z,42.27
2022-12-31T22:28:42.278Z,42.37
2022-12-31T22:31:21.497Z,42.27
2022-12-31T22:33:48.471Z,42.30
2022-12-31T22:36:18.645Z,42.43
2022-12-31T22:38:45.667Z,42.28
2022-12-31T22:41:18.478Z,42.32
2022-12-31T22:43:51.212Z,42.29
2022-12-31T22:46:28.579Z,42.21
2022-12-31T22:48:58.370Z,42.30
2022-12-31T22:51:26.374Z,42.24
2022-12-31T22:53:55.958Z,42.22
2022-12-31T22:56:22.473Z,42.29
2022-12-31T22:58:49.315Z,42.16
2022-12-31T23:01:21.965Z,42.39
2022-12-31T23:03:50.521Z,42.14
2022-12-31T23:06:17.730Z,42.26
2022-12-31T23:09:07.237Z,42.13
2022-12-31T23:11:35.858Z,42.20
2022-12-31T23:14:21.244Z,42.14
2022-12-31T23:17:29.899Z,42.15
2022-12-31T23:20:11.379Z,42.15
2022-12-31T23:22:56.177Z,42.14
2022-12-31T23:25:22.971Z,42.05
2022-12-31T23:27:49.458Z,42.13
2022-12-31T23:30:16.032Z,42.14
2022-12-31T23:32:42.562Z,41.97
2022-12-31T23:35:10.057Z,42.22
2022-12-31T23:37:36.892Z,42.15
2022-12-31T23:40:03.932Z,42.09
2022-12-31T23:42:30.410Z,42.17
2022-12-31T23:44:56.927Z,42.14
2022-12-31T23:47:23.403Z,42.18
2022-12-31T23:49:49.979Z,42.10
2022-12-31T23:52:16.472Z,42.22
2022-12-31T23:54:43.051Z,42.20
2022-12-31T23:57:09.676Z,42.18
2022-12-31T23:59:36.337Z,42.19
